sensor_id;sensor_type;location;lat;lon;timestamp;temperature;humidity
78490;DHT22;67776;52.012;4.736;2023-02-28T00:00:27;2.29;81.42
78490;DHT22;67776;52.012;4.736;2023-02-28T00:02:53;2.32;81.42
78490;DHT22;67776;52.012;4.736;2023-02-28T00:05:20;2.31;81.68
78490;DHT22;67776;52.012;4.736;2023-02-28T00:07:46;2.35;81.54
78490;DHT22;67776;52.012;4.736;2023-02-28T00:10:14;2.39;81.63
78490;DHT22;67776;52.012;4.736;2023-02-28T00:12:40;2.39;81.72
78490;DHT22;67776;52.012;4.736;2023-02-28T00:15:07;2.46;81.48
78490;DHT22;67776;52.012;4.736;2023-02-28T00:17:33;2.52;81.36
78490;DHT22;67776;52.012;4.736;2023-02-28T00:19:58;2.60;81.62
78490;DHT22;67776;52.012;4.736;2023-02-28T00:22:27;2.57;82.17
78490;DHT22;67776;52.012;4.736;2023-02-28T00:24:52;2.64;81.68
78490;DHT22;67776;52.012;4.736;2023-02-28T00:27:18;2.80;81.17
78490;DHT22;67776;52.012;4.736;2023-02-28T00:29:43;2.90;80.77
78490;DHT22;67776;52.012;4.736;2023-02-28T00:32:08;2.88;81.25
78490;DHT22;67776;52.012;4.736;2023-02-28T00:34:34;2.84;81.12
78490;DHT22;67776;52.012;4.736;2023-02-28T00:37:06;2.87;81.26
78490;DHT22;67776;52.012;4.736;2023-02-28T00:39:33;2.91;80.85
78490;DHT22;67776;52.012;4.736;2023-02-28T00:41:59;2.91;80.99
78490;DHT22;67776;52.012;4.736;2023-02-28T00:44:24;2.94;81.30
78490;DHT22;67776;52.012;4.736;2023-02-28T00:46:49;2.97;80.85
78490;DHT22;67776;52.012;4.736;2023-02-28T00:49:15;3.08;80.59
78490;DHT22;67776;52.012;4.736;2023-02-28T00:51:40;3.14;80.45
78490;DHT22;67776;52.012;4.736;2023-02-28T00:54:06;3.18;80.60
78490;DHT22;67776;52.012;4.736;2023-02-28T00:56:31;3.11;80.47
78490;DHT22;67776;52.012;4.736;2023-02-28T00:58:56;3.12;81.09
78490;DHT22;67776;52.012;4.736;2023-02-28T01:01:21;3.12;80.71
78490;DHT22;67776;52.012;4.736;2023-02-28T01:03:47;3.21;80.19
78490;DHT22;67776;52.012;4.736;2023-02-28T01:06:12;3.18;80.38
78490;DHT22;67776;52.012;4.736;2023-02-28T01:08:37;3.18;80.76
78490;DHT22;67776;52.012;4.736;2023-02-28T01:11:14;3.24;80.37
78490;DHT22;67776;52.012;4.736;2023-02-28T01:13:41;3.28;80.20
78490;DHT22;67776;52.012;4.736;2023-02-28T01:16:06;3.31;80.13
78490;DHT22;67776;52.012;4.736;2023-02-28T01:18:32;3.21;80.45
78490;DHT22;67776;52.012;4.736;2023-02-28T01:20:57;3.14;80.92
78490;DHT22;67776;52.012;4.736;2023-02-28T01:23:23;3.21;80.63
78490;DHT22;67776;52.012;4.736;2023-02-28T01:25:49;3.26;80.66
78490;DHT22;67776;52.012;4.736;2023-02-28T01:28:15;3.28;80.93
78490;DHT22;67776;52.012;4.736;2023-02-28T01:30:40;3.32;80.50
78490;DHT22;67776;52.012;4.736;2023-02-28T01:33:05;3.36;80.57
78490;DHT22;67776;52.012;4.736;2023-02-28T01:35:35;3.35;80.62
78490;DHT22;67776;52.012;4.736;2023-02-28T01:38:01;3.32;80.71
78490;DHT22;67776;52.012;4.736;2023-02-28T01:40:27;3.38;80.52
78490;DHT22;67776;52.012;4.736;2023-02-28T01:42:52;3.38;80.54
78490;DHT22;67776;52.012;4.736;2023-02-28T01:47:43;3.39;80.33
78490;DHT22;67776;52.012;4.736;2023-02-28T01:50:19;3.38;80.79
78490;DHT22;67776;52.012;4.736;2023-02-28T01:52:46;3.39;80.47
78490;DHT22;67776;52.012;4.736;2023-02-28T01:55:12;3.39;80.60
78490;DHT22;67776;52.012;4.736;2023-02-28T01:57:42;3.35;80.96
78490;DHT22;67776;52.012;4.736;2023-02-28T02:00:15;3.36;80.95
78490;DHT22;67776;52.012;4.736;2023-02-28T02:02:43;3.42;80.58
78490;DHT22;67776;52.012;4.736;2023-02-28T02:05:12;3.42;80.82
78490;DHT22;67776;52.012;4.736;2023-02-28T02:07:40;3.35;80.96
78490;DHT22;67776;52.012;4.736;2023-02-28T02:10:27;3.39;81.30
78490;DHT22;67776;52.012;4.736;2023-02-28T02:18:43;3.43;81.02
78490;DHT22;67776;52.012;4.736;2023-02-28T02:21:44;3.39;81.10
78490;DHT22;67776;52.012;4.736;2023-02-28T02:33:05;3.42;81.00
78490;DHT22;67776;52.012;4.736;2023-02-28T02:35:48;3.46;80.73
78490;DHT22;67776;52.012;4.736;2023-02-28T02:41:15;3.48;80.85
78490;DHT22;67776;52.012;4.736;2023-02-28T02:43:51;3.52;80.75
78490;DHT22;67776;52.012;4.736;2023-02-28T02:48:52;3.49;80.56
78490;DHT22;67776;52.012;4.736;2023-02-28T02:51:20;3.48;81.02
78490;DHT22;67776;52.012;4.736;2023-02-28T02:53:51;3.49;81.03
78490;DHT22;67776;52.012;4.736;2023-02-28T02:56:22;3.52;81.05
78490;DHT22;67776;52.012;4.736;2023-02-28T02:58:49;3.52;81.36
78490;DHT22;67776;52.012;4.736;2023-02-28T03:01:19;3.50;81.27
78490;DHT22;67776;52.012;4.736;2023-02-28T03:03:55;3.55;81.46
78490;DHT22;67776;52.012;4.736;2023-02-28T03:06:21;3.58;81.53
78490;DHT22;67776;52.012;4.736;2023-02-28T03:08:46;3.52;81.18
78490;DHT22;67776;52.012;4.736;2023-02-28T03:11:13;3.50;81.31
78490;DHT22;67776;52.012;4.736;2023-02-28T03:16:39;3.59;81.24
78490;DHT22;67776;52.012;4.736;2023-02-28T03:22:25;3.44;81.68
78490;DHT22;67776;52.012;4.736;2023-02-28T03:25:17;3.52;81.42
78490;DHT22;67776;52.012;4.736;2023-02-28T03:28:04;3.50;81.75
78490;DHT22;67776;52.012;4.736;2023-02-28T03:33:17;3.49;81.71
78490;DHT22;67776;52.012;4.736;2023-02-28T03:35:57;3.50;82.39
78490;DHT22;67776;52.012;4.736;2023-02-28T03:38:38;3.44;81.90
78490;DHT22;67776;52.012;4.736;2023-02-28T03:41:27;3.49;82.49
78490;DHT22;67776;52.012;4.736;2023-02-28T03:43:59;3.40;82.32
78490;DHT22;67776;52.012;4.736;2023-02-28T03:46:31;3.46;82.04
78490;DHT22;67776;52.012;4.736;2023-02-28T03:49:13;3.49;82.04
78490;DHT22;67776;52.012;4.736;2023-02-28T03:51:41;3.48;81.83
78490;DHT22;67776;52.012;4.736;2023-02-28T03:54:12;3.49;81.74
78490;DHT22;67776;52.012;4.736;2023-02-28T03:56:46;3.50;81.89
78490;DHT22;67776;52.012;4.736;2023-02-28T03:59:22;3.49;81.78
78490;DHT22;67776;52.012;4.736;2023-02-28T04:01:50;3.53;81.78
78490;DHT22;67776;52.012;4.736;2023-02-28T04:04:17;3.59;81.70
78490;DHT22;67776;52.012;4.736;2023-02-28T04:06:43;3.59;80.72
78490;DHT22;67776;52.012;4.736;2023-02-28T04:09:12;3.49;80.45
78490;DHT22;67776;52.012;4.736;2023-02-28T04:11:51;3.46;81.46
78490;DHT22;67776;52.012;4.736;2023-02-28T04:14:17;3.44;82.00
78490;DHT22;67776;52.012;4.736;2023-02-28T04:16:43;3.44;81.99
78490;DHT22;67776;52.012;4.736;2023-02-28T04:19:10;3.42;81.63
78490;DHT22;67776;52.012;4.736;2023-02-28T04:21:40;3.43;82.43
78490;DHT22;67776;52.012;4.736;2023-02-28T04:24:08;3.44;82.49
78490;DHT22;67776;52.012;4.736;2023-02-28T04:26:38;3.46;82.38
78490;DHT22;67776;52.012;4.736;2023-02-28T04:29:07;3.50;82.10
78490;DHT22;67776;52.012;4.736;2023-02-28T04:31:33;3.49;82.15
78490;DHT22;67776;52.012;4.736;2023-02-28T04:33:59;3.44;82.90
78490;DHT22;67776;52.012;4.736;2023-02-28T04:36:24;3.50;82.14
78490;DHT22;67776;52.012;4.736;2023-02-28T04:38:50;3.44;82.21
78490;DHT22;67776;52.012;4.736;2023-02-28T04:41:16;3.43;82.82
78490;DHT22;67776;52.012;4.736;2023-02-28T04:43:41;3.36;82.97
78490;DHT22;67776;52.012;4.736;2023-02-28T04:46:07;3.35;82.71
78490;DHT22;67776;52.012;4.736;2023-02-28T04:48:34;3.39;83.10
78490;DHT22;67776;52.012;4.736;2023-02-28T04:51:01;3.40;83.21
78490;DHT22;67776;52.012;4.736;2023-02-28T04:53:28;3.52;83.04
78490;DHT22;67776;52.012;4.736;2023-02-28T04:55:54;3.39;82.56
78490;DHT22;67776;52.012;4.736;2023-02-28T04:58:19;3.32;83.74
78490;DHT22;67776;52.012;4.736;2023-02-28T05:00:48;3.35;83.26
78490;DHT22;67776;52.012;4.736;2023-02-28T05:03:13;3.43;83.16
78490;DHT22;67776;52.012;4.736;2023-02-28T05:05:39;3.44;83.40
78490;DHT22;67776;52.012;4.736;2023-02-28T05:08:04;3.46;82.98
78490;DHT22;67776;52.012;4.736;2023-02-28T05:10:30;3.42;83.16
78490;DHT22;67776;52.012;4.736;2023-02-28T05:12:56;3.32;83.28
78490;DHT22;67776;52.012;4.736;2023-02-28T05:15:21;3.32;83.81
78490;DHT22;67776;52.012;4.736;2023-02-28T05:17:46;3.26;82.80
78490;DHT22;67776;52.012;4.736;2023-02-28T05:20:12;3.28;82.71
78490;DHT22;67776;52.012;4.736;2023-02-28T05:22:39;3.25;82.57
78490;DHT22;67776;52.012;4.736;2023-02-28T05:25:04;3.18;83.16
78490;DHT22;67776;52.012;4.736;2023-02-28T05:27:30;3.16;82.78
78490;DHT22;67776;52.012;4.736;2023-02-28T05:29:56;3.12;82.60
78490;DHT22;67776;52.012;4.736;2023-02-28T05:32:21;3.14;82.86
78490;DHT22;67776;52.012;4.736;2023-02-28T05:34:46;3.11;83.10
78490;DHT22;67776;52.012;4.736;2023-02-28T05:37:13;3.14;83.16
78490;DHT22;67776;52.012;4.736;2023-02-28T05:39:39;3.07;83.40
78490;DHT22;67776;52.012;4.736;2023-02-28T05:42:04;3.07;82.27
78490;DHT22;67776;52.012;4.736;2023-02-28T05:44:30;3.05;82.28
78490;DHT22;67776;52.012;4.736;2023-02-28T05:46:56;3.05;83.05
78490;DHT22;67776;52.012;4.736;2023-02-28T05:49:21;3.05;81.48
78490;DHT22;67776;52.012;4.736;2023-02-28T05:51:47;2.96;81.30
78490;DHT22;67776;52.012;4.736;2023-02-28T05:54:12;2.91;79.90
78490;DHT22;67776;52.012;4.736;2023-02-28T05:56:37;2.87;78.36
78490;DHT22;67776;52.012;4.736;2023-02-28T05:59:05;2.79;77.67
78490;DHT22;67776;52.012;4.736;2023-02-28T06:01:32;2.72;75.86
78490;DHT22;67776;52.012;4.736;2023-02-28T06:03:59;2.72;75.24
78490;DHT22;67776;52.012;4.736;2023-02-28T06:06:25;2.73;75.04
78490;DHT22;67776;52.012;4.736;2023-02-28T06:08:50;2.67;75.02
78490;DHT22;67776;52.012;4.736;2023-02-28T06:11:15;2.63;73.77
78490;DHT22;67776;52.012;4.736;2023-02-28T06:13:41;2.59;73.94
78490;DHT22;67776;52.012;4.736;2023-02-28T06:16:08;2.54;74.09
78490;DHT22;67776;52.012;4.736;2023-02-28T06:18:34;2.49;75.17
78490;DHT22;67776;52.012;4.736;2023-02-28T06:20:59;2.45;75.29
78490;DHT22;67776;52.012;4.736;2023-02-28T06:23:24;2.43;75.83
78490;DHT22;67776;52.012;4.736;2023-02-28T06:25:50;2.26;77.48
78490;DHT22;67776;52.012;4.736;2023-02-28T06:28:15;2.25;78.81
78490;DHT22;67776;52.012;4.736;2023-02-28T06:30:41;2.21;79.31
78490;DHT22;67776;52.012;4.736;2023-02-28T06:33:06;2.10;80.35
78490;DHT22;67776;52.012;4.736;2023-02-28T06:35:32;1.98;81.39
78490;DHT22;67776;52.012;4.736;2023-02-28T06:37:57;1.86;82.19
78490;DHT22;67776;52.012;4.736;2023-02-28T06:40:22;1.84;82.86
78490;DHT22;67776;52.012;4.736;2023-02-28T06:42:48;1.77;83.29
78490;DHT22;67776;52.012;4.736;2023-02-28T06:45:13;1.78;84.23
78490;DHT22;67776;52.012;4.736;2023-02-28T06:47:40;1.71;84.44
78490;DHT22;67776;52.012;4.736;2023-02-28T06:50:07;1.63;85.30
78490;DHT22;67776;52.012;4.736;2023-02-28T06:52:33;1.55;86.11
78490;DHT22;67776;52.012;4.736;2023-02-28T06:55:01;1.52;86.59
78490;DHT22;67776;52.012;4.736;2023-02-28T06:57:30;1.45;87.65
78490;DHT22;67776;52.012;4.736;2023-02-28T06:59:59;1.41;87.84
78490;DHT22;67776;52.012;4.736;2023-02-28T07:02:26;1.31;88.46
78490;DHT22;67776;52.012;4.736;2023-02-28T07:04:52;1.43;88.61
78490;DHT22;67776;52.012;4.736;2023-02-28T07:07:17;1.35;88.76
78490;DHT22;67776;52.012;4.736;2023-02-28T07:09:42;1.31;89.38
78490;DHT22;67776;52.012;4.736;2023-02-28T07:12:07;1.36;89.33
78490;DHT22;67776;52.012;4.736;2023-02-28T07:14:33;1.25;89.76
78490;DHT22;67776;52.012;4.736;2023-02-28T07:16:58;1.27;89.78
78490;DHT22;67776;52.012;4.736;2023-02-28T07:19:23;1.35;89.75
78490;DHT22;67776;52.012;4.736;2023-02-28T07:21:49;1.31;90.02
78490;DHT22;67776;52.012;4.736;2023-02-28T07:24:14;1.28;90.06
78490;DHT22;67776;52.012;4.736;2023-02-28T07:26:41;1.39;89.72
78490;DHT22;67776;52.012;4.736;2023-02-28T07:29:09;1.28;89.82
78490;DHT22;67776;52.012;4.736;2023-02-28T07:31:34;1.31;89.84
78490;DHT22;67776;52.012;4.736;2023-02-28T07:34:00;1.41;89.94
78490;DHT22;67776;52.012;4.736;2023-02-28T07:36:25;1.36;89.70
78490;DHT22;67776;52.012;4.736;2023-02-28T07:38:50;1.38;90.24
78490;DHT22;67776;52.012;4.736;2023-02-28T07:41:18;1.52;89.81
78490;DHT22;67776;52.012;4.736;2023-02-28T07:43:44;1.53;89.68
78490;DHT22;67776;52.012;4.736;2023-02-28T07:46:12;1.45;90.06
78490;DHT22;67776;52.012;4.736;2023-02-28T07:48:37;1.58;89.98
78490;DHT22;67776;52.012;4.736;2023-02-28T07:51:03;1.64;89.67
78490;DHT22;67776;52.012;4.736;2023-02-28T07:53:29;1.62;89.92
78490;DHT22;67776;52.012;4.736;2023-02-28T07:55:56;1.63;89.87
78490;DHT22;67776;52.012;4.736;2023-02-28T07:58:22;1.63;89.89
78490;DHT22;67776;52.012;4.736;2023-02-28T08:00:48;1.69;89.71
78490;DHT22;67776;52.012;4.736;2023-02-28T08:03:13;1.69;89.77
78490;DHT22;67776;52.012;4.736;2023-02-28T08:05:39;1.71;90.02
78490;DHT22;67776;52.012;4.736;2023-02-28T08:08:05;1.74;90.31
78490;DHT22;67776;52.012;4.736;2023-02-28T08:10:31;1.80;89.87
78490;DHT22;67776;52.012;4.736;2023-02-28T08:12:57;1.84;89.81
78490;DHT22;67776;52.012;4.736;2023-02-28T08:15:22;1.90;89.75
78490;DHT22;67776;52.012;4.736;2023-02-28T08:17:47;1.88;89.69
78490;DHT22;67776;52.012;4.736;2023-02-28T08:20:13;1.88;89.92
78490;DHT22;67776;52.012;4.736;2023-02-28T08:22:38;1.90;90.28
78490;DHT22;67776;52.012;4.736;2023-02-28T08:25:04;1.97;90.10
78490;DHT22;67776;52.012;4.736;2023-02-28T08:27:29;2.05;90.27
78490;DHT22;67776;52.012;4.736;2023-02-28T08:29:55;2.05;90.03
78490;DHT22;67776;52.012;4.736;2023-02-28T08:32:20;2.11;90.08
78490;DHT22;67776;52.012;4.736;2023-02-28T08:34:45;2.18;89.97
78490;DHT22;67776;52.012;4.736;2023-02-28T08:37:10;2.10;90.20
78490;DHT22;67776;52.012;4.736;2023-02-28T08:39:38;2.24;90.27
78490;DHT22;67776;52.012;4.736;2023-02-28T08:42:04;2.25;90.02
78490;DHT22;67776;52.012;4.736;2023-02-28T08:44:30;2.31;89.91
78490;DHT22;67776;52.012;4.736;2023-02-28T08:46:55;2.38;89.80
78490;DHT22;67776;52.012;4.736;2023-02-28T08:49:20;2.41;89.67
78490;DHT22;67776;52.012;4.736;2023-02-28T08:51:46;2.33;89.99
78490;DHT22;67776;52.012;4.736;2023-02-28T08:54:11;2.49;89.61
78490;DHT22;67776;52.012;4.736;2023-02-28T08:56:44;2.59;89.62
78490;DHT22;67776;52.012;4.736;2023-02-28T08:59:09;2.61;89.66
78490;DHT22;67776;52.012;4.736;2023-02-28T09:01:35;2.57;89.18
78490;DHT22;67776;52.012;4.736;2023-02-28T09:04:01;2.67;89.54
78490;DHT22;67776;52.012;4.736;2023-02-28T09:06:28;2.64;89.00
78490;DHT22;67776;52.012;4.736;2023-02-28T09:08:56;2.79;89.02
78490;DHT22;67776;52.012;4.736;2023-02-28T09:11:23;2.73;89.61
78490;DHT22;67776;52.012;4.736;2023-02-28T09:13:49;2.67;89.17
78490;DHT22;67776;52.012;4.736;2023-02-28T09:16:16;2.72;88.48
78490;DHT22;67776;52.012;4.736;2023-02-28T09:18:42;2.76;88.97
78490;DHT22;67776;52.012;4.736;2023-02-28T09:21:10;2.69;88.95
78490;DHT22;67776;52.012;4.736;2023-02-28T09:23:38;2.87;88.47
78490;DHT22;67776;52.012;4.736;2023-02-28T09:26:04;2.53;88.31
78490;DHT22;67776;52.012;4.736;2023-02-28T09:28:30;2.64;89.38
78490;DHT22;67776;52.012;4.736;2023-02-28T09:30:55;2.57;89.07
78490;DHT22;67776;52.012;4.736;2023-02-28T09:33:23;2.52;89.18
78490;DHT22;67776;52.012;4.736;2023-02-28T09:35:58;2.45;88.71
78490;DHT22;67776;52.012;4.736;2023-02-28T09:38:23;2.64;89.15
78490;DHT22;67776;52.012;4.736;2023-02-28T09:40:51;2.77;89.53
78490;DHT22;67776;52.012;4.736;2023-02-28T09:43:20;2.75;88.62
78490;DHT22;67776;52.012;4.736;2023-02-28T09:45:55;2.79;89.40
78490;DHT22;67776;52.012;4.736;2023-02-28T09:48:28;2.91;88.75
78490;DHT22;67776;52.012;4.736;2023-02-28T09:51:11;2.91;88.42
78490;DHT22;67776;52.012;4.736;2023-02-28T09:53:39;2.77;88.98
78490;DHT22;67776;52.012;4.736;2023-02-28T09:56:55;2.79;88.52
78490;DHT22;67776;52.012;4.736;2023-02-28T09:59:00;2.88;89.02
78490;DHT22;67776;52.012;4.736;2023-02-28T10:01:50;2.93;87.29
78490;DHT22;67776;52.012;4.736;2023-02-28T10:07:03;3.03;84.26
78490;DHT22;67776;52.012;4.736;2023-02-28T10:09:32;3.09;83.52
78490;DHT22;67776;52.012;4.736;2023-02-28T10:12:05;3.14;83.21
78490;DHT22;67776;52.012;4.736;2023-02-28T10:14:34;3.25;82.84
78490;DHT22;67776;52.012;4.736;2023-02-28T10:17:26;3.18;81.21
78490;DHT22;67776;52.012;4.736;2023-02-28T10:19:59;3.22;82.29
78490;DHT22;67776;52.012;4.736;2023-02-28T10:22:33;3.29;80.89
78490;DHT22;67776;52.012;4.736;2023-02-28T10:24:59;3.66;81.65
78490;DHT22;67776;52.012;4.736;2023-02-28T10:27:32;3.77;75.63
78490;DHT22;67776;52.012;4.736;2023-02-28T10:29:59;3.83;76.39
78490;DHT22;67776;52.012;4.736;2023-02-28T10:32:32;3.93;77.39
78490;DHT22;67776;52.012;4.736;2023-02-28T10:37:23;4.45;72.91
78490;DHT22;67776;52.012;4.736;2023-02-28T10:39:48;4.38;67.60
78490;DHT22;67776;52.012;4.736;2023-02-28T10:42:28;4.81;70.14
78490;DHT22;67776;52.012;4.736;2023-02-28T10:45:13;5.52;67.23
78490;DHT22;67776;52.012;4.736;2023-02-28T10:47:55;6.26;63.27
78490;DHT22;67776;52.012;4.736;2023-02-28T10:50:45;6.76;62.37
78490;DHT22;67776;52.012;4.736;2023-02-28T10:58:30;7.20;57.83
78490;DHT22;67776;52.012;4.736;2023-02-28T11:00:57;7.53;56.01
78490;DHT22;67776;52.012;4.736;2023-02-28T11:03:34;6.14;52.32
78490;DHT22;67776;52.012;4.736;2023-02-28T11:06:10;5.86;55.22
78490;DHT22;67776;52.012;4.736;2023-02-28T11:08:45;6.64;53.32
78490;DHT22;67776;52.012;4.736;2023-02-28T11:11:11;6.49;54.31
78490;DHT22;67776;52.012;4.736;2023-02-28T11:13:37;6.28;54.34
78490;DHT22;67776;52.012;4.736;2023-02-28T11:16:05;5.62;51.40
78490;DHT22;67776;52.012;4.736;2023-02-28T11:21:04;6.21;51.68
78490;DHT22;67776;52.012;4.736;2023-02-28T11:23:32;6.26;53.36
78490;DHT22;67776;52.012;4.736;2023-02-28T11:26:02;5.91;50.65
78490;DHT22;67776;52.012;4.736;2023-02-28T11:28:35;6.07;54.67
78490;DHT22;67776;52.012;4.736;2023-02-28T11:33:55;5.90;51.05
78490;DHT22;67776;52.012;4.736;2023-02-28T11:36:27;5.86;50.56
78490;DHT22;67776;52.012;4.736;2023-02-28T11:38:55;6.24;52.23
78490;DHT22;67776;52.012;4.736;2023-02-28T11:47:00;7.09;48.30
78490;DHT22;67776;52.012;4.736;2023-02-28T11:52:24;8.66;46.40
78490;DHT22;67776;52.012;4.736;2023-02-28T12:11:04;9.71;39.19
78490;DHT22;67776;52.012;4.736;2023-02-28T12:13:51;10.05;38.58
78490;DHT22;67776;52.012;4.736;2023-02-28T12:16:33;9.71;42.00
78490;DHT22;67776;52.012;4.736;2023-02-28T12:27:37;10.05;40.00
78490;DHT22;67776;52.012;4.736;2023-02-28T12:30:28;10.21;36.76
78490;DHT22;67776;52.012;4.736;2023-02-28T12:33:06;10.13;36.99
78490;DHT22;67776;52.012;4.736;2023-02-28T12:35:35;10.84;35.34
78490;DHT22;67776;52.012;4.736;2023-02-28T12:38:06;10.50;37.18
78490;DHT22;67776;52.012;4.736;2023-02-28T12:40:44;11.14;37.45
78490;DHT22;67776;52.012;4.736;2023-02-28T12:43:12;9.70;36.78
78490;DHT22;67776;52.012;4.736;2023-02-28T12:48:11;11.40;37.24
78490;DHT22;67776;52.012;4.736;2023-02-28T12:50:39;10.87;35.38
78490;DHT22;67776;52.012;4.736;2023-02-28T12:53:06;11.10;34.99
78490;DHT22;67776;52.012;4.736;2023-02-28T12:55:50;10.95;34.41
78490;DHT22;67776;52.012;4.736;2023-02-28T12:58:33;10.78;34.48
78490;DHT22;67776;52.012;4.736;2023-02-28T13:11:46;12.36;32.63
78490;DHT22;67776;52.012;4.736;2023-02-28T13:14:47;11.59;34.43
78490;DHT22;67776;52.012;4.736;2023-02-28T13:17:20;11.40;35.74
78490;DHT22;67776;52.012;4.736;2023-02-28T13:22:39;12.56;30.79
78490;DHT22;67776;52.012;4.736;2023-02-28T13:28:09;12.24;32.97
78490;DHT22;67776;52.012;4.736;2023-02-28T13:38:45;12.10;31.92
78490;DHT22;67776;52.012;4.736;2023-02-28T13:44:10;12.20;31.15
78490;DHT22;67776;52.012;4.736;2023-02-28T13:51:49;12.49;30.92
78490;DHT22;67776;52.012;4.736;2023-02-28T13:57:14;11.90;33.22
78490;DHT22;67776;52.012;4.736;2023-02-28T14:05:01;12.46;33.06
78490;DHT22;67776;52.012;4.736;2023-02-28T14:07:31;12.32;32.83
78490;DHT22;67776;52.012;4.736;2023-02-28T14:10:03;11.53;33.75
78490;DHT22;67776;52.012;4.736;2023-02-28T14:18:00;11.15;32.60
78490;DHT22;67776;52.012;4.736;2023-02-28T14:20:30;11.26;33.74
78490;DHT22;67776;52.012;4.736;2023-02-28T14:26:03;9.29;36.19
78490;DHT22;67776;52.012;4.736;2023-02-28T14:32:05;9.63;35.77
78490;DHT22;67776;52.012;4.736;2023-02-28T14:34:47;8.95;36.01
78490;DHT22;67776;52.012;4.736;2023-02-28T14:37:20;8.89;36.98
78490;DHT22;67776;52.012;4.736;2023-02-28T14:39:49;9.78;36.82
78490;DHT22;67776;52.012;4.736;2023-02-28T14:42:35;9.12;37.39
78490;DHT22;67776;52.012;4.736;2023-02-28T14:45:01;8.70;37.80
78490;DHT22;67776;52.012;4.736;2023-02-28T14:47:30;9.04;37.32
78490;DHT22;67776;52.012;4.736;2023-02-28T14:49:56;9.16;37.03
78490;DHT22;67776;52.012;4.736;2023-02-28T14:52:28;9.02;37.13
78490;DHT22;67776;52.012;4.736;2023-02-28T14:55:06;8.63;36.83
78490;DHT22;67776;52.012;4.736;2023-02-28T14:57:38;8.52;39.33
78490;DHT22;67776;52.012;4.736;2023-02-28T15:00:09;8.40;38.20
78490;DHT22;67776;52.012;4.736;2023-02-28T15:02:39;8.46;37.44
78490;DHT22;67776;52.012;4.736;2023-02-28T15:07:42;8.68;37.14
78490;DHT22;67776;52.012;4.736;2023-02-28T15:10:24;8.76;39.03
78490;DHT22;67776;52.012;4.736;2023-02-28T15:12:55;8.63;36.33
78490;DHT22;67776;52.012;4.736;2023-02-28T15:15:22;8.52;38.15
78490;DHT22;67776;52.012;4.736;2023-02-28T15:17:52;8.73;38.24
78490;DHT22;67776;52.012;4.736;2023-02-28T15:20:20;9.11;36.49
78490;DHT22;67776;52.012;4.736;2023-02-28T15:22:47;9.19;36.97
78490;DHT22;67776;52.012;4.736;2023-02-28T15:25:19;8.78;38.14
78490;DHT22;67776;52.012;4.736;2023-02-28T15:27:49;9.05;37.39
78490;DHT22;67776;52.012;4.736;2023-02-28T15:30:27;8.81;37.44
78490;DHT22;67776;52.012;4.736;2023-02-28T15:33:18;8.80;36.22
78490;DHT22;67776;52.012;4.736;2023-02-28T15:35:44;9.36;36.89
78490;DHT22;67776;52.012;4.736;2023-02-28T15:40:46;8.60;39.13
78490;DHT22;67776;52.012;4.736;2023-02-28T15:43:32;8.98;38.36
78490;DHT22;67776;52.012;4.736;2023-02-28T15:46:06;8.71;38.43
78490;DHT22;67776;52.012;4.736;2023-02-28T15:48:51;8.38;39.34
78490;DHT22;67776;52.012;4.736;2023-02-28T15:51:24;8.25;48.69
78490;DHT22;67776;52.012;4.736;2023-02-28T15:53:58;8.19;50.68
78490;DHT22;67776;52.012;4.736;2023-02-28T15:56:29;7.87;52.14
78490;DHT22;67776;52.012;4.736;2023-02-28T15:59:03;8.15;52.97
78490;DHT22;67776;52.012;4.736;2023-02-28T16:01:35;7.92;54.20
78490;DHT22;67776;52.012;4.736;2023-02-28T16:04:06;8.60;51.79
78490;DHT22;67776;52.012;4.736;2023-02-28T16:06:42;8.43;52.69
78490;DHT22;67776;52.012;4.736;2023-02-28T16:09:16;8.46;52.56
78490;DHT22;67776;52.012;4.736;2023-02-28T16:11:47;8.21;53.26
78490;DHT22;67776;52.012;4.736;2023-02-28T16:14:17;8.52;52.94
78490;DHT22;67776;52.012;4.736;2023-02-28T16:16:48;8.04;52.43
78490;DHT22;67776;52.012;4.736;2023-02-28T16:19:14;7.94;53.13
78490;DHT22;67776;52.012;4.736;2023-02-28T16:21:39;7.70;55.95
78490;DHT22;67776;52.012;4.736;2023-02-28T16:24:05;8.02;54.84
78490;DHT22;67776;52.012;4.736;2023-02-28T16:26:30;7.69;55.35
78490;DHT22;67776;52.012;4.736;2023-02-28T16:28:59;7.83;54.42
78490;DHT22;67776;52.012;4.736;2023-02-28T16:31:25;7.38;55.66
78490;DHT22;67776;52.012;4.736;2023-02-28T16:33:50;7.46;56.13
78490;DHT22;67776;52.012;4.736;2023-02-28T16:36:19;7.69;55.77
78490;DHT22;67776;52.012;4.736;2023-02-28T16:38:44;7.83;55.13
78490;DHT22;67776;52.012;4.736;2023-02-28T16:41:13;7.49;56.51
78490;DHT22;67776;52.012;4.736;2023-02-28T16:43:43;6.79;57.75
78490;DHT22;67776;52.012;4.736;2023-02-28T16:46:11;7.00;58.49
78490;DHT22;67776;52.012;4.736;2023-02-28T16:48:36;6.69;59.39
78490;DHT22;67776;52.012;4.736;2023-02-28T16:51:02;6.63;59.62
78490;DHT22;67776;52.012;4.736;2023-02-28T16:53:29;6.58;59.62
78490;DHT22;67776;52.012;4.736;2023-02-28T16:55:54;6.46;59.51
78490;DHT22;67776;52.012;4.736;2023-02-28T16:58:20;6.46;59.37
78490;DHT22;67776;52.012;4.736;2023-02-28T17:00:46;6.28;60.50
78490;DHT22;67776;52.012;4.736;2023-02-28T17:03:22;6.17;60.10
78490;DHT22;67776;52.012;4.736;2023-02-28T17:05:47;6.09;60.60
78490;DHT22;67776;52.012;4.736;2023-02-28T17:08:13;5.81;61.29
78490;DHT22;67776;52.012;4.736;2023-02-28T17:10:38;5.94;61.47
78490;DHT22;67776;52.012;4.736;2023-02-28T17:13:04;5.97;61.61
78490;DHT22;67776;52.012;4.736;2023-02-28T17:15:32;6.02;61.75
78490;DHT22;67776;52.012;4.736;2023-02-28T17:17:58;5.91;62.44
78490;DHT22;67776;52.012;4.736;2023-02-28T17:20:23;5.53;63.21
78490;DHT22;67776;52.012;4.736;2023-02-28T17:22:50;5.42;63.31
78490;DHT22;67776;52.012;4.736;2023-02-28T17:25:16;5.40;63.23
78490;DHT22;67776;52.012;4.736;2023-02-28T17:27:42;5.28;63.19
78490;DHT22;67776;52.012;4.736;2023-02-28T17:30:16;5.45;63.37
78490;DHT22;67776;52.012;4.736;2023-02-28T17:32:42;5.14;64.23
78490;DHT22;67776;52.012;4.736;2023-02-28T17:35:08;5.31;64.43
78490;DHT22;67776;52.012;4.736;2023-02-28T17:37:34;5.17;64.36
78490;DHT22;67776;52.012;4.736;2023-02-28T17:39:59;4.99;64.96
78490;DHT22;67776;52.012;4.736;2023-02-28T17:42:25;4.91;65.87
78490;DHT22;67776;52.012;4.736;2023-02-28T17:44:50;4.87;65.40
78490;DHT22;67776;52.012;4.736;2023-02-28T17:47:15;4.84;65.83
78490;DHT22;67776;52.012;4.736;2023-02-28T17:49:41;5.07;65.10
78490;DHT22;67776;52.012;4.736;2023-02-28T17:52:07;4.88;66.41
78490;DHT22;67776;52.012;4.736;2023-02-28T17:54:32;4.90;66.74
78490;DHT22;67776;52.012;4.736;2023-02-28T17:56:57;4.73;67.30
78490;DHT22;67776;52.012;4.736;2023-02-28T17:59:23;4.73;67.29
78490;DHT22;67776;52.012;4.736;2023-02-28T18:01:48;4.70;67.30
78490;DHT22;67776;52.012;4.736;2023-02-28T18:04:14;4.60;68.11
78490;DHT22;67776;52.012;4.736;2023-02-28T18:06:44;4.59;67.88
78490;DHT22;67776;52.012;4.736;2023-02-28T18:09:19;4.67;68.06
78490;DHT22;67776;52.012;4.736;2023-02-28T18:11:47;4.49;69.05
78490;DHT22;67776;52.012;4.736;2023-02-28T18:14:16;4.66;68.25
78490;DHT22;67776;52.012;4.736;2023-02-28T18:16:42;4.35;69.27